Архив погоды в Лагани

Метеограмма Лагань
Вторник, 14 Августа
Время местн. Темп Ветер Видим Явления Облачность нижн/средн/верх Атм. давл. Влжн Точка росы ВНГО R Сост. почвы Tg s
Напр Скр Прв ур.ст ур.м изм
12:00 +32.2° С 4 - 20 км - переменная облачность 763 761 -0.5 24% +9.2° 1.5 км - - - -
09:00 +29.1° З,С-З 3 - 20 км - ясно 763 762 +0.2 29% +9.5° более 2.5 км - - - -
06:00 +15.5° С-З 2 - 10 км - ясно 763 761 +0.9 82% +12.5° более 2.5 км - Сухая (без трещин) - -
03:00 +16.1° З 2 - 4 км дымка ясно 762 760 +0.4 94% +15.1° более 2.5 км - - - -
00:00 +17.9° С-В 1 - 10 км - ясно 762 760 -0.1 89% +16.1° более 2.5 км - - - -
Понедельник, 13 Августа
Время местн. Темп Ветер Видим Явления Облачность нижн/средн/верх Атм. давл. Влжн Точка росы ВНГО R Сост. почвы Tg s
Напр Скр Прв ур.ст ур.м изм
21:00 +20.3° В,С-В 1 - 10 км - переменная облачность 762 760 +0.7 85% +17.7° 1 км - - - -
18:00 +24.7° Ю-В 4 - 20 км - переменная облачность 761 759 -0.2 63% +17.3° 1.5 км - - - -
15:00 +26.4° В,Ю-В 5 - 20 км - облачно с прояснениями 762 760 -0.8 48% +14.4° 1.5 км - - - -
12:00 +27.3° З 3 - 20 км - переменная облачность 762 761 -0.9 33% +9.6° 1.5 км - - - -
09:00 +22.8° З,Ю-З 3 - 20 км - облачно с прояснениями 763 761 +0.1 50% +11.8° 1 км - - - -
06:00 +17.4° штиль 0 - 10 км - преимущественно облачно 763 761 +0.2 86% +15° 1 км - Влажная (без луж) - -
03:00 +16.9° С 1 - 10 км - облачно с прояснениями 763 761 -0.2 88% +14.9° 1 км - - - -
00:00 +17° штиль 0 - 20 км - облачно 763 761 -1.2 86% +14.7° 1 км - - - -
Воскресенье, 12 Августа
Время местн. Темп Ветер Видим Явления Облачность нижн/средн/верх Атм. давл. Влжн Точка росы ВНГО R Сост. почвы Tg s
Напр Скр Прв ур.ст ур.м изм
21:00 +18.4° В,Ю-В 3 - 20 км небо без изменений {ливневые осадки} облачно 764 762 +0.2 73% +13.5° 1 км - - - -
18:00 +19.2° штиль 0 - 20 км ливневый дождь облачно 764 762 -0.5 76% +14.8° 1 км - - - -
15:00 +23.1° Ю-В 4 - 20 км - облачно 765 763 -0.6 56% +13.8° 1 км - - - -
12:00 +24.1° В 5 - 20 км - преимущественно облачно 765 763 -0.5 51% +13.4° 1 км - - - -
09:00 +24° В 5 - 20 км - переменная облачность 766 764 -0.5 37% +8.5° - - - - -
06:00 +16.4° С-В 3 - 20 км - облачно с прояснениями 766 764 -0.3 63% +9.4° - - Сухая (без трещин) - -
03:00 +15.3° С,С-В 3 - 20 км - переменная облачность 767 765 -1.1 67% +9.2° - - - - -
00:00 +14.2° штиль 0 - 20 км - переменная облачность 768 766 -0.8 65% +7.7° - - - - -
Суббота, 11 Августа
Время местн. Темп Ветер Видим Явления Облачность нижн/средн/верх Атм. давл. Влжн Точка росы ВНГО R Сост. почвы Tg s
Напр Скр Прв ур.ст ур.м изм
21:00 +17.6° штиль 0 - 20 км - переменная облачность 769 767 +0.3 58% +9.3° - - - - -
18:00 +23.1° Ю-В 4 - 20 км - переменная облачность 768 766 -0.4 34% +6.3° - - - - -
15:00 +25.2° В 4 - 20 км - переменная облачность 769 767 -1.1 29% +5.7° - - - - -
12:00 +25.3° В 5 - 20 км - преимущественно облачно 770 768 -0.4 28% +5.3° - - - - -
09:00 +23.6° В,С-В 5 - 20 км - облачно с прояснениями 770 768 +0.2 30% +5° - - - - -